Time;durP1;ratioP1;P1;durP2;ratioP2;P2;SDS_P1;SDS_P2;PMS_P1;PMS_P2;Temp;Humidity;BMP_temperature;BMP_pressure;BME280_temperature;BME280_humidity;BME280_pressure;Samples;Min_cycle;Max_cycle;Signal;HPM_P1;HPM_P2
2024/01/07 00:00:01;;;;;;;22.53;11.73;;;;;;;2.32;100.00;101556.16;5042646;28;20078;-88
2024/01/07 00:02:26;;;;;;;21.83;11.57;;;;;;;2.31;100.00;101546.44;5025412;28;20127;-89
2024/01/07 00:04:51;;;;;;;22.20;11.63;;;;;;;2.28;100.00;101543.03;5042620;28;20086;-88
2024/01/07 00:07:17;;;;;;;23.73;12.03;;;;;;;2.30;100.00;101548.25;5076685;28;20488;-87
2024/01/07 00:09:42;;;;;;;23.30;11.67;;;;;;;2.28;100.00;101545.72;5042077;28;20388;-89
2024/01/07 00:12:08;;;;;;;23.37;11.63;;;;;;;2.26;100.00;101545.03;5058410;28;20032;-88
2024/01/07 00:14:33;;;;;;;23.17;11.85;;;;;;;2.31;100.00;101549.13;5058320;28;20270;-88
2024/01/07 00:16:59;;;;;;;21.63;12.33;;;;;;;2.25;100.00;101548.69;5059753;28;20518;-89
2024/01/07 00:19:24;;;;;;;24.17;12.47;;;;;;;2.31;100.00;101571.38;5076903;28;20028;-88
2024/01/07 00:21:49;;;;;;;22.77;12.37;;;;;;;2.24;100.00;101552.38;5076530;28;20111;-88
2024/01/07 00:24:15;;;;;;;25.52;11.85;;;;;;;2.25;100.00;101556.72;5076467;28;20114;-88
2024/01/07 00:26:41;;;;;;;24.87;12.60;;;;;;;2.31;100.00;101567.88;5057744;28;20029;-87
2024/01/07 00:29:06;;;;;;;24.02;12.35;;;;;;;2.21;100.00;101555.31;5076346;28;20491;-89
2024/01/07 00:31:32;;;;;;;26.17;12.80;;;;;;;2.17;100.00;101556.63;5058207;28;20044;-89
2024/01/07 00:33:57;;;;;;;25.43;12.43;;;;;;;2.20;100.00;101566.16;5058392;28;20032;-88
2024/01/07 00:36:23;;;;;;;21.95;11.52;;;;;;;2.15;100.00;101563.94;5076152;28;20021;-89
2024/01/07 00:38:48;;;;;;;25.65;12.80;;;;;;;2.15;100.00;101576.47;5058119;28;20033;-89
2024/01/07 00:41:14;;;;;;;24.53;12.50;;;;;;;2.11;100.00;101565.19;5058094;28;20037;-88
2024/01/07 00:43:40;;;;;;;23.13;12.53;;;;;;;2.06;100.00;101562.13;5075648;28;20087;-88
2024/01/07 00:46:06;;;;;;;23.83;12.70;;;;;;;2.06;100.00;101564.78;5057905;28;20028;-88
2024/01/07 00:48:31;;;;;;;23.27;12.20;;;;;;;2.14;100.00;101582.81;5041726;28;20408;-88
2024/01/07 00:50:56;;;;;;;22.90;12.75;;;;;;;2.05;100.00;101565.78;5041379;28;20028;-90
2024/01/07 00:53:24;;;;;;;23.47;12.90;;;;;;;2.07;100.00;101582.56;5057890;28;20029;-89
2024/01/07 00:55:52;;;;;;;21.30;11.50;;;;;;;2.04;100.00;101583.66;5075807;28;20389;-88
2024/01/07 00:58:18;;;;;;;21.73;12.23;;;;;;;2.04;100.00;101586.34;5057829;28;20020;-88
2024/01/07 01:00:43;;;;;;;22.25;12.15;;;;;;;2.07;100.00;101586.06;5057705;28;20048;-88
2024/01/07 01:03:08;;;;;;;19.67;11.43;;;;;;;2.04;100.00;101580.16;5041184;28;20037;-88
2024/01/07 01:05:36;;;;;;;19.50;11.37;;;;;;;2.09;100.00;101597.47;5058002;28;20032;-88
2024/01/07 01:08:01;;;;;;;21.17;11.35;;;;;;;2.00;100.00;101576.91;5058077;28;20427;-88
2024/01/07 01:10:27;;;;;;;18.53;11.07;;;;;;;2.10;100.00;101593.81;5058409;28;20032;-88
2024/01/07 01:12:54;;;;;;;21.53;11.23;;;;;;;2.08;100.00;101594.94;5057754;28;20033;-89
2024/01/07 01:15:19;;;;;;;17.88;10.55;;;;;;;2.10;100.00;101604.50;5058243;28;20040;-88
2024/01/07 01:17:45;;;;;;;20.52;11.20;;;;;;;2.09;100.00;101599.31;5075395;28;20028;-88
2024/01/07 01:20:11;;;;;;;18.23;11.00;;;;;;;2.06;100.00;101600.41;5057611;28;20028;-88
2024/01/07 01:22:36;;;;;;;18.23;11.00;;;;;;;2.09;100.00;101608.16;5024350;28;20029;-88
2024/01/07 01:25:03;;;;;;;19.92;11.07;;;;;;;2.06;100.00;101602.25;5075476;28;20497;-88
2024/01/07 01:27:28;;;;;;;17.10;9.70;;;;;;;2.08;100.00;101597.59;5041468;28;20036;-89
2024/01/07 01:29:54;;;;;;;18.25;10.25;;;;;;;2.10;100.00;101612.56;5057563;28;20370;-88
2024/01/07 01:32:19;;;;;;;17.17;9.83;;;;;;;2.09;100.00;101610.84;5057463;28;20396;-88
2024/01/07 01:34:44;;;;;;;17.87;10.07;;;;;;;2.14;100.00;101615.81;5041099;28;20032;-89
2024/01/07 01:37:10;;;;;;;16.60;10.13;;;;;;;2.12;100.00;101622.28;5057233;28;20102;-88
2024/01/07 01:39:35;;;;;;;17.90;10.43;;;;;;;2.10;100.00;101617.06;5074984;28;20029;-88
2024/01/07 01:42:01;;;;;;;17.38;10.32;;;;;;;2.14;100.00;101631.88;5057266;28;20033;-88
2024/01/07 01:44:27;;;;;;;17.70;10.50;;;;;;;2.11;100.00;101626.78;5074745;28;20547;-88
2024/01/07 01:46:54;;;;;;;22.85;11.63;;;;;;;2.13;100.00;101631.97;5024201;28;20048;-88
2024/01/07 01:49:20;;;;;;;21.33;11.27;;;;;;;2.10;100.00;101631.28;5056888;28;20190;-88
2024/01/07 01:51:46;;;;;;;21.42;11.82;;;;;;;2.10;100.00;101631.28;5056955;28;20287;-88
2024/01/07 01:54:12;;;;;;;23.23;12.07;;;;;;;2.12;100.00;101636.50;5023781;28;20178;-88
2024/01/07 01:56:38;;;;;;;24.15;11.43;;;;;;;2.10;100.00;101635.81;5057019;28;20040;-88
2024/01/07 01:59:03;;;;;;;24.00;12.57;;;;;;;2.07;100.00;101633.41;5056441;28;20035;-88
2024/01/07 02:01:31;;;;;;;26.73;12.30;;;;;;;2.12;100.00;101643.69;5056582;28;20685;-88
2024/01/07 02:03:56;;;;;;;25.47;12.37;;;;;;;2.08;100.00;101635.09;5073993;28;20087;-88
2024/01/07 02:06:22;;;;;;;22.85;12.50;;;;;;;2.10;100.00;101642.00;5074065;28;20036;-88
2024/01/07 02:08:48;;;;;;;21.93;11.93;;;;;;;2.15;100.00;101648.78;5039826;28;20043;-88
2024/01/07 02:11:21;;;;;;;22.90;12.32;;;;;;;2.13;100.00;101646.22;5040594;28;20040;-88
2024/01/07 02:13:47;;;;;;;21.60;12.23;;;;;;;2.07;100.00;101644.97;5050276;28;20102;-88
2024/01/07 02:16:12;;;;;;;26.80;13.40;;;;;;;2.08;100.00;101643.13;5074359;28;20465;-88
2024/01/07 02:18:41;;;;;;;25.95;13.13;;;;;;;2.08;100.00;101653.81;5057351;28;20383;-88
2024/01/07 02:21:07;;;;;;;24.27;13.05;;;;;;;2.03;100.00;101648.06;5056421;28;20029;-88
2024/01/07 02:23:32;;;;;;;25.07;13.27;;;;;;;2.01;100.00;101645.53;5039426;28;20098;-88
2024/01/07 02:25:57;;;;;;;26.13;13.50;;;;;;;2.07;100.00;101657.50;5039503;28;20066;-88
2024/01/07 02:28:23;;;;;;;26.33;13.18;;;;;;;2.00;100.00;101646.50;5074071;28;20059;-88
2024/01/07 02:30:48;;;;;;;28.43;13.47;;;;;;;2.01;100.00;101645.53;5056078;28;20082;-88
2024/01/07 02:33:14;;;;;;;27.67;13.87;;;;;;;2.00;100.00;101657.22;5056931;28;20031;-88
2024/01/07 02:35:39;;;;;;;31.47;13.63;;;;;;;2.07;100.00;101661.03;5056366;28;20396;-88
2024/01/07 02:38:04;;;;;;;28.53;14.00;;;;;;;2.10;100.00;101663.41;5074226;28;20029;-88
2024/01/07 02:40:30;;;;;;;24.15;12.35;;;;;;;2.09;100.00;101660.88;5056054;28;20060;-88
2024/01/07 02:42:56;;;;;;;23.60;12.57;;;;;;;2.09;100.00;101666.22;5039596;28;20032;-87
2024/01/07 02:45:22;;;;;;;23.85;12.10;;;;;;;2.12;100.00;101670.47;5056805;28;20055;-89
2024/01/07 02:47:47;;;;;;;25.63;12.20;;;;;;;2.04;100.00;101661.31;5023835;28;20029;-88
2024/01/07 02:50:13;;;;;;;23.30;12.00;;;;;;;2.02;100.00;101663.28;5055928;28;20492;-88
2024/01/07 02:52:38;;;;;;;27.58;12.85;;;;;;;1.96;100.00;101671.00;5056185;28;20285;-88
2024/01/07 02:55:04;;;;;;;26.03;13.17;;;;;;;1.92;100.00;101670.44;5055922;28;20036;-88
2024/01/07 02:57:29;;;;;;;31.10;13.77;;;;;;;1.96;100.00;101671.00;5056576;28;20028;-88
2024/01/07 02:59:55;;;;;;;28.48;13.45;;;;;;;1.92;100.00;101673.13;5056374;28;20538;-88
2024/01/07 03:02:20;;;;;;;26.47;12.87;;;;;;;1.91;100.00;101674.94;5039148;28;20459;-88
2024/01/07 03:04:45;;;;;;;29.90;14.27;;;;;;;1.96;100.00;101687.06;5055565;28;20107;-88
2024/01/07 03:07:11;;;;;;;30.77;14.13;;;;;;;1.90;100.00;101683.94;5022563;28;20032;-88
2024/01/07 03:09:36;;;;;;;36.70;15.80;;;;;;;1.94;100.00;101684.53;5039309;28;20036;-88
2024/01/07 03:12:02;;;;;;;34.03;15.23;;;;;;;1.92;100.00;101686.50;5056003;28;20028;-88
2024/01/07 03:14:27;;;;;;;37.55;16.25;;;;;;;1.95;100.00;101693.41;5055298;28;20055;-89
2024/01/07 03:16:52;;;;;;;39.87;16.93;;;;;;;1.88;100.00;101685.09;5057255;28;20086;-88
2024/01/07 03:19:18;;;;;;;37.00;16.77;;;;;;;1.88;100.00;101691.28;5078227;28;20028;-88
2024/01/07 03:21:43;;;;;;;33.80;16.30;;;;;;;1.91;100.00;101690.16;5059680;28;20029;-89
2024/01/07 03:24:09;;;;;;;37.77;15.73;;;;;;;1.95;100.00;101704.09;5059869;28;20044;-88
2024/01/07 03:26:34;;;;;;;36.42;15.98;;;;;;;1.90;100.00;101693.81;5077239;28;20163;-88
2024/01/07 03:29:02;;;;;;;39.87;16.90;;;;;;;1.86;100.00;101693.25;5060347;28;20043;-88
2024/01/07 03:31:28;;;;;;;37.20;16.70;;;;;;;1.85;100.00;101693.41;5059716;28;20075;-88
2024/01/07 03:33:53;;;;;;;44.93;18.27;;;;;;;1.91;100.00;101706.22;5077507;28;20028;-88
2024/01/07 03:36:19;;;;;;;42.97;18.58;;;;;;;1.88;100.00;101704.66;5059318;28;20039;-88
2024/01/07 03:38:44;;;;;;;39.97;17.02;;;;;;;1.93;100.00;101707.78;5043026;28;20385;-89
2024/01/07 03:41:16;;;;;;;40.13;17.23;;;;;;;1.96;100.00;101703.13;5059614;28;20372;-88
2024/01/07 03:43:42;;;;;;;40.53;18.25;;;;;;;1.92;100.00;101702.56;5059261;28;20031;-88
2024/01/07 03:46:07;;;;;;;43.37;18.30;;;;;;;2.00;100.00;101709.91;5056756;28;20049;-88
2024/01/07 03:48:33;;;;;;;41.37;17.70;;;;;;;1.98;100.00;101710.03;5039184;28;20068;-88
2024/01/07 03:50:58;;;;;;;40.53;16.85;;;;;;;1.96;100.00;101708.47;5056827;28;20416;-88
2024/01/07 03:53:24;;;;;;;39.77;16.87;;;;;;;2.01;100.00;101715.13;5038865;28;20024;-88
2024/01/07 03:55:49;;;;;;;37.83;16.70;;;;;;;2.04;100.00;101725.56;5038925;28;20477;-89
2024/01/07 03:58:14;;;;;;;35.60;15.87;;;;;;;1.98;100.00;101718.06;5022733;28;20031;-89
2024/01/07 04:00:40;;;;;;;34.57;15.87;;;;;;;2.06;100.00;101728.91;5056626;28;20037;-89
2024/01/07 04:03:05;;;;;;;34.00;16.08;;;;;;;2.05;100.00;101727.25;5056481;28;20065;-89
2024/01/07 04:05:31;;;;;;;33.43;16.00;;;;;;;2.00;100.00;101720.63;5005997;28;20029;-89
2024/01/07 04:07:56;;;;;;;30.13;15.80;;;;;;;1.98;100.00;101728.78;5039008;28;20028;-88
2024/01/07 04:10:22;;;;;;;30.20;14.83;;;;;;;2.05;100.00;101734.41;5056933;28;20116;-88
2024/01/07 04:12:48;;;;;;;31.17;14.27;;;;;;;2.06;100.00;101741.47;5022319;28;20053;-88
2024/01/07 04:15:13;;;;;;;28.10;14.60;;;;;;;1.97;100.00;101727.09;5038739;28;20029;-88
2024/01/07 04:17:39;;;;;;;31.52;15.27;;;;;;;1.96;100.00;101729.91;5038680;28;20457;-88
2024/01/07 04:20:06;;;;;;;28.43;14.50;;;;;;;2.03;100.00;101742.59;5039116;28;20488;-88
2024/01/07 04:22:31;;;;;;;27.58;13.77;;;;;;;2.00;100.00;101742.88;5038542;28;20033;-89
2024/01/07 04:24:57;;;;;;;28.90;13.60;;;;;;;1.99;100.00;101740.31;5038183;28;20045;-88
2024/01/07 04:27:22;;;;;;;25.93;12.80;;;;;;;2.03;100.00;101753.28;5055990;28;20056;-88
2024/01/07 04:29:47;;;;;;;26.73;13.77;;;;;;;2.00;100.00;101752.72;5021931;28;20062;-88
2024/01/07 04:32:13;;;;;;;26.13;13.45;;;;;;;1.95;100.00;101749.59;5038480;28;20087;-88
2024/01/07 04:34:38;;;;;;;25.10;12.53;;;;;;;1.93;100.00;101758.63;5038467;28;20044;-88
2024/01/07 04:37:03;;;;;;;26.03;13.53;;;;;;;1.96;100.00;101762.84;5022317;28;20473;-88
2024/01/07 04:39:29;;;;;;;27.40;12.63;;;;;;;1.89;100.00;101762.56;5037710;28;20397;-88
2024/01/07 04:41:54;;;;;;;30.57;12.93;;;;;;;1.96;100.00;101767.38;5038233;28;20108;-88
2024/01/07 04:44:19;;;;;;;25.33;12.60;;;;;;;1.92;100.00;101762.28;5023248;28;20048;-88
2024/01/07 04:46:45;;;;;;;27.23;13.47;;;;;;;1.94;100.00;101778.22;5055002;28;20475;-89
2024/01/07 04:49:10;;;;;;;32.75;14.10;;;;;;;1.86;100.00;101768.19;5055430;28;20029;-88
2024/01/07 04:51:38;;;;;;;29.27;12.65;;;;;;;1.83;100.00;101765.78;5055931;28;20059;-89
2024/01/07 04:54:05;;;;;;;27.90;12.63;;;;;;;1.82;100.00;101771.28;5055497;28;20457;-89
2024/01/07 04:56:31;;;;;;;30.33;13.57;;;;;;;1.82;100.00;101774.78;5054620;28;20287;-88
2024/01/07 04:58:56;;;;;;;27.95;13.70;;;;;;;1.90;100.00;101785.66;5038063;28;20037;-88
2024/01/07 05:01:22;;;;;;;25.77;12.90;;;;;;;1.87;100.00;101780.56;5054512;28;20499;-88
2024/01/07 05:03:47;;;;;;;31.50;13.40;;;;;;;1.96;100.00;101786.09;5021340;28;20025;-89
2024/01/07 05:06:13;;;;;;;27.60;12.40;;;;;;;1.95;100.00;101785.25;5054245;28;20131;-88
2024/01/07 05:08:40;;;;;;;22.80;12.32;;;;;;;1.98;100.00;101785.00;5021282;28;20039;-89
2024/01/07 05:11:06;;;;;;;26.42;12.77;;;;;;;1.89;100.00;101770.59;5055526;28;20029;-88
2024/01/07 05:13:34;;;;;;;22.55;11.50;;;;;;;1.96;100.00;101791.47;5054307;28;20382;-88
2024/01/07 05:16:00;;;;;;;23.93;11.57;;;;;;;1.89;100.00;101789.31;5038013;28;20040;-88
2024/01/07 05:18:25;;;;;;;22.65;12.20;;;;;;;1.91;100.00;101795.38;5037630;28;20279;-88
2024/01/07 05:20:51;;;;;;;23.93;11.47;;;;;;;1.85;100.00;101779.03;5038072;28;20179;-88
2024/01/07 05:23:17;;;;;;;21.10;10.63;;;;;;;1.86;100.00;101786.94;5037916;28;20069;-88
2024/01/07 05:25:44;;;;;;;21.50;11.20;;;;;;;1.87;100.00;101796.63;5053853;28;20029;-89
2024/01/07 05:28:10;;;;;;;17.95;10.10;;;;;;;1.88;100.00;101798.31;5054960;28;20029;-88
2024/01/07 05:30:36;;;;;;;19.35;9.93;;;;;;;1.90;100.00;101803.53;5053890;28;20057;-88
2024/01/07 05:33:01;;;;;;;15.63;9.70;;;;;;;1.90;100.00;101815.09;5054089;28;20037;-88
2024/01/07 05:35:27;;;;;;;17.53;9.77;;;;;;;1.91;100.00;101815.97;5053914;28;20032;-88
2024/01/07 05:37:52;;;;;;;17.00;9.35;;;;;;;1.85;100.00;101816.50;5037382;28;20051;-88
2024/01/07 05:40:17;;;;;;;14.97;9.00;;;;;;;1.87;100.00;101823.38;5052865;28;20037;-89
2024/01/07 05:42:43;;;;;;;15.63;8.83;;;;;;;1.83;100.00;101827.34;5037031;28;20432;-89
2024/01/07 05:45:08;;;;;;;18.77;10.03;;;;;;;1.85;100.00;101835.22;5053372;28;20049;-89
2024/01/07 05:47:34;;;;;;;16.85;9.25;;;;;;;1.74;100.00;101834.34;5055325;28;20509;-88
2024/01/07 05:50:00;;;;;;;14.30;8.77;;;;;;;1.79;100.00;101835.75;5055029;28;20098;-89
2024/01/07 05:52:25;;;;;;;15.13;9.10;;;;;;;1.82;100.00;101844.38;5053682;28;20025;-89
2024/01/07 05:54:51;;;;;;;13.60;8.60;;;;;;;1.83;100.00;101850.56;5053929;28;20044;-88
2024/01/07 05:57:16;;;;;;;15.17;9.07;;;;;;;1.80;100.00;101845.47;5037136;28;20040;-89
2024/01/07 05:59:46;;;;;;;14.00;8.50;;;;;;;1.70;100.00;101837.41;5054926;28;20029;-89
2024/01/07 06:02:12;;;;;;;14.32;8.27;;;;;;;1.75;100.00;101843.19;5055056;28;20042;-89
2024/01/07 06:04:38;;;;;;;16.13;8.85;;;;;;;1.80;100.00;101849.03;5053663;28;20062;-88
2024/01/07 06:07:06;;;;;;;14.47;8.40;;;;;;;1.78;100.00;101844.78;5053448;28;20032;-89
2024/01/07 06:09:31;;;;;;;15.40;9.18;;;;;;;1.86;100.00;101859.19;5053449;28;20315;-89
2024/01/07 06:12:00;;;;;;;13.60;7.90;;;;;;;1.87;100.00;101860.84;5020656;28;20107;-88
2024/01/07 06:14:26;;;;;;;12.13;8.10;;;;;;;1.85;100.00;101856.66;5053544;28;20286;-88
2024/01/07 06:16:52;;;;;;;13.05;8.90;;;;;;;1.86;100.00;101869.88;5036648;28;20401;-88
2024/01/07 06:19:18;;;;;;;13.13;8.43;;;;;;;1.81;100.00;101861.41;5036664;28;20477;-88
2024/01/07 06:21:43;;;;;;;12.32;8.10;;;;;;;1.87;100.00;101873.41;5053580;28;20032;-88
2024/01/07 06:24:09;;;;;;;13.77;8.48;;;;;;;1.80;100.00;101869.56;5053157;28;20028;-88
2024/01/07 06:26:37;;;;;;;11.80;7.88;;;;;;;1.77;100.00;101865.31;5054114;28;20033;-87
2024/01/07 06:29:09;;;;;;;10.30;7.10;;;;;;;1.73;100.00;101874.59;5054460;28;20072;-87
2024/01/07 06:31:36;;;;;;;13.52;7.47;;;;;;;1.74;100.00;101879.81;5037268;28;20291;-87
2024/01/07 06:34:01;;;;;;;11.27;7.47;;;;;;;1.71;100.00;101893.47;5021025;28;20084;-88
2024/01/07 06:36:26;;;;;;;10.98;7.10;;;;;;;1.73;100.00;101901.38;5053590;28;20370;-89
2024/01/07 06:38:52;;;;;;;12.70;7.80;;;;;;;1.68;100.00;101895.53;5054956;28;20065;-88
2024/01/07 06:44:39;;;;;;;15.43;9.02;;;;;;;1.72;100.00;101919.22;5060570;28;20297;-86
2024/01/07 06:47:05;;;;;;;17.80;10.32;;;;;;;1.75;100.00;101926.16;5057999;28;20040;-88
2024/01/07 06:49:33;;;;;;;15.38;9.38;;;;;;;1.74;100.00;101919.09;5057004;28;20464;-88
2024/01/07 06:51:59;;;;;;;19.63;10.30;;;;;;;1.77;100.00;101926.03;5056909;28;20039;-87
2024/01/07 06:54:25;;;;;;;16.52;10.02;;;;;;;1.75;100.00;101927.00;5057287;28;20762;-87
2024/01/07 06:56:50;;;;;;;16.93;9.60;;;;;;;1.77;100.00;101942.91;5057691;28;20504;-87
2024/01/07 06:59:16;;;;;;;18.92;10.65;;;;;;;1.74;100.00;101935.16;5057069;28;20120;-88
2024/01/07 07:01:41;;;;;;;20.33;10.97;;;;;;;1.73;100.00;101937.00;5058261;28;20116;-88
2024/01/07 07:04:06;;;;;;;17.43;10.03;;;;;;;1.68;100.00;101933.88;5040053;28;20382;-87
2024/01/07 07:06:34;;;;;;;18.33;11.20;;;;;;;1.64;100.00;101929.75;5024178;28;20044;-87
2024/01/07 07:09:00;;;;;;;18.75;11.18;;;;;;;1.67;100.00;101947.34;5056721;28;20032;-87
2024/01/07 07:11:25;;;;;;;19.35;11.23;;;;;;;1.70;100.00;101947.97;5056587;28;20388;-87
2024/01/07 07:13:51;;;;;;;20.13;10.73;;;;;;;1.70;100.00;101944.44;5056883;28;20032;-87
2024/01/07 07:16:16;;;;;;;17.03;11.13;;;;;;;1.70;100.00;101955.16;5074786;28;20033;-90
2024/01/07 07:18:42;;;;;;;18.27;11.23;;;;;;;1.65;100.00;101935.94;5056462;28;20028;-87
2024/01/07 07:21:08;;;;;;;22.60;11.75;;;;;;;1.70;100.00;101949.78;5040215;28;20290;-88
2024/01/07 07:23:33;;;;;;;17.83;10.73;;;;;;;1.69;100.00;101945.41;5075241;28;20141;-88
2024/01/07 07:25:59;;;;;;;21.30;11.10;;;;;;;1.73;100.00;101955.72;5074224;28;20052;-89
2024/01/07 07:28:26;;;;;;;19.63;11.30;;;;;;;1.69;100.00;101961.47;5056430;28;20067;-88
2024/01/07 07:30:53;;;;;;;19.43;11.10;;;;;;;1.69;100.00;101964.13;5056939;28;20037;-87
2024/01/07 07:33:20;;;;;;;19.23;11.63;;;;;;;1.68;100.00;101967.78;5055757;28;20020;-88
2024/01/07 07:35:46;;;;;;;20.58;11.70;;;;;;;1.72;100.00;101980.78;5039975;28;20614;-88
2024/01/07 07:38:12;;;;;;;19.15;11.40;;;;;;;1.66;100.00;101981.28;5056111;28;20056;-89
2024/01/07 07:40:37;;;;;;;23.47;12.20;;;;;;;1.65;100.00;101989.44;5056350;28;20142;-88
2024/01/07 07:43:03;;;;;;;21.33;11.70;;;;;;;1.63;100.00;101984.22;5056641;28;20031;-92
2024/01/07 07:45:28;;;;;;;17.17;11.13;;;;;;;1.59;100.00;101982.78;5055877;28;20048;-88
2024/01/07 07:47:54;;;;;;;17.75;10.65;;;;;;;1.60;100.00;101999.72;5073848;28;20051;-92
2024/01/07 07:50:22;;;;;;;15.27;9.77;;;;;;;1.55;100.00;102006.28;5056900;28;20031;-88
2024/01/07 07:52:47;;;;;;;14.90;8.55;;;;;;;1.58;100.00;102016.72;5073784;28;20086;-87
2024/01/07 07:55:13;;;;;;;14.43;8.60;;;;;;;1.50;100.00;102021.84;5039269;28;20392;-89
2024/01/07 07:57:38;;;;;;;13.97;7.97;;;;;;;1.38;100.00;102021.03;5039071;28;20123;-90
2024/01/07 08:00:06;;;;;;;15.77;9.17;;;;;;;1.28;100.00;102019.25;5056154;28;20029;-88
2024/01/07 08:02:32;;;;;;;12.98;7.68;;;;;;;1.25;100.00;102033.72;5057159;28;20123;-87
2024/01/07 08:05:00;;;;;;;12.40;8.03;;;;;;;1.11;100.00;102025.97;5043465;28;20064;-88
2024/01/07 08:07:25;;;;;;;13.23;7.82;;;;;;;1.14;100.00;102034.59;5059722;28;20822;-88
2024/01/07 08:09:51;;;;;;;16.80;7.97;;;;;;;1.07;100.00;102024.53;5059850;28;20060;-88
2024/01/07 08:12:16;;;;;;;13.75;7.63;;;;;;;1.03;100.00;102030.13;5059800;28;20380;-87
2024/01/07 08:14:42;;;;;;;13.70;8.10;;;;;;;1.01;100.00;102028.53;5059854;28;20209;-88
2024/01/07 08:17:17;;;;;;;14.30;8.10;;;;;;;0.98;100.00;102028.78;5059806;28;20427;-88
2024/01/07 08:19:50;;;;;;;13.67;7.90;;;;;;;0.94;100.00;102038.88;5060002;28;20029;-87
2024/01/07 08:22:16;;;;;;;14.40;7.85;;;;;;;0.93;100.00;102041.66;5060857;28;20362;-87
2024/01/07 08:24:42;;;;;;;14.43;8.27;;;;;;;0.97;100.00;102051.13;5060382;28;20056;-87
2024/01/07 08:27:08;;;;;;;15.07;8.38;;;;;;;0.95;100.00;102050.44;5078371;28;20027;-88
2024/01/07 08:29:35;;;;;;;15.97;8.10;;;;;;;0.87;100.00;102045.66;5060951;28;20468;-88
2024/01/07 08:32:03;;;;;;;14.75;7.80;;;;;;;0.85;100.00;102051.13;5077694;28;20082;-88
2024/01/07 08:34:28;;;;;;;16.20;8.27;;;;;;;0.90;100.00;102057.94;5077342;28;20039;-87
2024/01/07 08:36:54;;;;;;;17.37;8.50;;;;;;;0.90;100.00;102061.50;5060341;28;20024;-87
2024/01/07 08:39:20;;;;;;;15.38;8.02;;;;;;;0.90;100.00;102061.50;5060085;28;20041;-88
2024/01/07 08:41:45;;;;;;;13.80;7.90;;;;;;;0.96;100.00;102070.81;5059044;28;20058;-88
2024/01/07 08:44:11;;;;;;;12.87;7.53;;;;;;;0.94;100.00;102059.41;5077843;28;20035;-88
2024/01/07 08:46:36;;;;;;;13.52;7.72;;;;;;;1.00;100.00;102072.28;5077609;28;20063;-88
2024/01/07 08:49:02;;;;;;;15.63;7.80;;;;;;;1.04;100.00;102081.75;5060323;28;20032;-88
2024/01/07 08:51:29;;;;;;;13.05;7.63;;;;;;;1.09;100.00;102089.41;5043369;28;20032;-87
2024/01/07 08:53:55;;;;;;;13.32;8.00;;;;;;;1.08;100.00;102096.59;5077270;28;20123;-87
2024/01/07 08:56:20;;;;;;;13.47;7.97;;;;;;;1.11;100.00;102091.00;5059031;28;20508;-88
2024/01/07 08:58:46;;;;;;;14.75;7.97;;;;;;;1.07;100.00;102084.19;5058145;28;20124;-86
2024/01/07 09:01:13;;;;;;;14.83;8.43;;;;;;;1.08;100.00;102088.56;5058544;28;20040;-86
2024/01/07 09:03:41;;;;;;;12.13;7.55;;;;;;;1.09;100.00;102087.56;5041873;28;20086;-87
2024/01/07 09:09:35;;;;;;;13.95;7.45;;;;;;;1.19;100.00;102112.59;5077065;28;20085;-87
2024/01/07 09:15:22;;;;;;;12.23;6.88;;;;;;;1.21;100.00;102125.84;5075090;28;20051;-87
2024/01/07 09:17:48;;;;;;;11.07;7.07;;;;;;;1.18;100.00;102115.38;5041945;28;20392;-86
2024/01/07 09:20:13;;;;;;;12.38;7.65;;;;;;;1.13;100.00;102126.47;5025688;28;20353;-88
2024/01/07 09:22:39;;;;;;;10.40;6.77;;;;;;;1.08;100.00;102117.97;5042431;28;20033;-87
2024/01/07 09:25:06;;;;;;;10.60;6.70;;;;;;;1.03;100.00;102123.69;5041522;28;20028;-87
2024/01/07 09:27:33;;;;;;;9.40;6.10;;;;;;;1.08;100.00;102136.69;5075890;28;20024;-87
2024/01/07 09:29:59;;;;;;;12.73;7.17;;;;;;;1.06;100.00;102133.25;5058477;28;20384;-86
2024/01/07 09:32:27;;;;;;;10.32;6.85;;;;;;;1.07;100.00;102140.31;5077342;28;20283;-87
2024/01/07 09:34:53;;;;;;;9.35;6.30;;;;;;;0.99;100.00;102132.91;5058089;28;20035;-87
2024/01/07 09:37:18;;;;;;;11.03;6.83;;;;;;;1.01;100.00;102140.81;5058067;28;20566;-87
2024/01/07 09:39:47;;;;;;;12.55;7.07;;;;;;;1.07;100.00;102152.84;5075899;28;20028;-87
2024/01/07 09:42:19;;;;;;;9.15;6.10;;;;;;;1.01;100.00;102135.47;5041076;28;20040;-87
2024/01/07 09:48:49;;;;;;;10.15;6.40;;;;;;;1.14;100.00;102164.75;5075438;28;20148;-87
2024/01/07 09:51:19;;;;;;;10.40;6.00;;;;;;;0.99;100.00;102156.09;5041352;28;20059;-87
2024/01/07 09:53:47;;;;;;;10.13;6.47;;;;;;;1.00;100.00;102161.31;5057065;28;20123;-87
2024/01/07 09:56:48;;;;;;;10.57;6.45;;;;;;;1.10;100.00;102187.34;5075259;28;20286;-87
2024/01/07 09:59:16;;;;;;;9.90;6.63;;;;;;;1.03;100.00;102184.28;5057609;28;20128;-87
2024/01/07 10:01:41;;;;;;;10.00;5.72;;;;;;;0.97;100.00;102187.44;5040347;28;20380;-87
2024/01/07 10:04:07;;;;;;;10.23;6.37;;;;;;;0.93;100.00;102200.22;5024885;28;20055;-87
2024/01/07 10:06:40;;;;;;;9.47;6.20;;;;;;;0.86;100.00;102186.47;5024234;28;20032;-87
2024/01/07 10:09:08;;;;;;;7.75;6.00;;;;;;;0.85;100.00;102195.44;5059633;28;20055;-87
2024/01/07 10:11:37;;;;;;;9.25;5.93;;;;;;;0.84;100.00;102198.22;5076317;28;20038;-87
2024/01/07 10:14:02;;;;;;;8.32;6.13;;;;;;;0.86;100.00;102193.63;5057819;28;20035;-87
2024/01/07 10:16:28;;;;;;;9.87;6.17;;;;;;;0.86;100.00;102207.00;5040860;28;20477;-87
2024/01/07 10:18:53;;;;;;;7.93;6.10;;;;;;;0.77;100.00;102192.53;5057359;28;20064;-87
2024/01/07 10:21:19;;;;;;;10.35;6.60;;;;;;;0.83;100.00;102208.06;5040836;28;20071;-88
2024/01/07 10:23:44;;;;;;;11.07;6.33;;;;;;;0.85;100.00;102205.28;5058203;28;20518;-87
2024/01/07 10:26:10;;;;;;;10.10;6.47;;;;;;;0.88;100.00;102207.72;5075886;28;20032;-88
2024/01/07 10:28:37;;;;;;;9.33;6.47;;;;;;;0.86;100.00;102209.66;5074660;28;20111;-87
2024/01/07 10:31:06;;;;;;;8.55;6.45;;;;;;;0.83;100.00;102204.56;5075009;28;20465;-88
2024/01/07 10:33:33;;;;;;;8.95;5.80;;;;;;;0.89;100.00;102214.78;5057415;28;20036;-88
2024/01/07 10:36:05;;;;;;;10.73;6.88;;;;;;;0.90;100.00;102208.47;5057379;28;20131;-88
2024/01/07 10:38:32;;;;;;;11.00;6.73;;;;;;;0.97;100.00;102203.47;5057356;28;20115;-88
2024/01/07 10:40:59;;;;;;;8.55;5.93;;;;;;;1.07;100.00;102215.16;5074927;28;20352;-87
2024/01/07 10:43:28;;;;;;;9.38;6.13;;;;;;;0.99;100.00;102198.84;5056853;28;20036;-87
2024/01/07 10:45:55;;;;;;;10.35;6.80;;;;;;;1.08;100.00;102214.19;5056807;28;20020;-87
2024/01/07 10:48:24;;;;;;;9.20;6.22;;;;;;;1.03;100.00;102201.19;5056839;28;20492;-87
2024/01/07 10:50:54;;;;;;;9.80;6.47;;;;;;;1.03;100.00;102201.19;5056792;28;20034;-87
2024/01/07 10:53:21;;;;;;;10.43;6.85;;;;;;;1.00;100.00;102196.06;5075089;28;20366;-88
2024/01/07 10:55:59;;;;;;;11.15;6.63;;;;;;;1.02;100.00;102212.00;5056945;28;20025;-87
2024/01/07 10:58:33;;;;;;;10.57;7.40;;;;;;;0.99;100.00;102201.53;5057946;28;20036;-87
2024/01/07 11:01:02;;;;;;;9.88;6.60;;;;;;;1.04;100.00;102210.06;5056714;28;20036;-88
2024/01/07 11:03:38;;;;;;;9.17;6.73;;;;;;;1.07;100.00;102208.97;5057584;28;20062;-87
2024/01/07 11:06:18;;;;;;;12.00;6.68;;;;;;;1.10;100.00;102214.91;5056494;28;20290;-87
2024/01/07 11:08:58;;;;;;;10.13;6.20;;;;;;;1.14;100.00;102219.06;5057162;28;20046;-87
2024/01/07 11:11:42;;;;;;;9.82;6.88;;;;;;;1.19;100.00;102226.72;5074898;28;20028;-87
2024/01/07 11:14:39;;;;;;;8.45;6.28;;;;;;;1.26;100.00;102232.44;5057314;28;20035;-88
2024/01/07 11:17:08;;;;;;;9.83;6.53;;;;;;;1.27;100.00;102226.09;5075230;28;20028;-87
2024/01/07 11:19:37;;;;;;;9.27;6.43;;;;;;;1.30;100.00;102225.88;5040335;28;20429;-88
2024/01/07 11:22:28;;;;;;;9.73;6.47;;;;;;;1.31;100.00;102217.72;5056983;28;20662;-88
2024/01/07 11:24:56;;;;;;;9.73;6.22;;;;;;;1.33;100.00;102214.94;5056312;28;20128;-88